ESOK 191420Z AUTO 23017KT 9999 FEW058/// 19/06 Q1007